sensor_id;sensor_type;location;lat;lon;timestamp;P1;durP1;ratioP1;P2;durP2;ratioP2
61505;SDS011;47366;51.916;4.574;2023-04-03T00:02:02;0.88;;;0.50;;
61505;SDS011;47366;51.916;4.574;2023-04-03T00:04:27;0.40;;;0.28;;
61505;SDS011;47366;51.916;4.574;2023-04-03T00:06:53;0.60;;;0.38;;
61505;SDS011;47366;51.916;4.574;2023-04-03T00:09:18;0.90;;;0.30;;
61505;SDS011;47366;51.916;4.574;2023-04-03T00:11:43;0.15;;;0.10;;
61505;SDS011;47366;51.916;4.574;2023-04-03T00:14:08;0.10;;;0.10;;
61505;SDS011;47366;51.916;4.574;2023-04-03T00:16:34;0.15;;;0.15;;
61505;SDS011;47366;51.916;4.574;2023-04-03T00:18:59;1.08;;;0.50;;
61505;SDS011;47366;51.916;4.574;2023-04-03T00:21:25;0.65;;;0.50;;
61505;SDS011;47366;51.916;4.574;2023-04-03T00:23:51;0.22;;;0.20;;
61505;SDS011;47366;51.916;4.574;2023-04-03T00:26:16;0.65;;;0.38;;
61505;SDS011;47366;51.916;4.574;2023-04-03T00:28:41;0.90;;;0.63;;
61505;SDS011;47366;51.916;4.574;2023-04-03T00:31:07;0.55;;;0.20;;
61505;SDS011;47366;51.916;4.574;2023-04-03T00:33:32;1.15;;;0.47;;
61505;SDS011;47366;51.916;4.574;2023-04-03T00:35:57;0.30;;;0.30;;
61505;SDS011;47366;51.916;4.574;2023-04-03T00:38:23;2.13;;;0.05;;
61505;SDS011;47366;51.916;4.574;2023-04-03T00:40:48;1.38;;;0.30;;
61505;SDS011;47366;51.916;4.574;2023-04-03T00:43:19;2.58;;;0.43;;
61505;SDS011;47366;51.916;4.574;2023-04-03T00:45:49;0.15;;;0.08;;
61505;SDS011;47366;51.916;4.574;2023-04-03T00:50:59;0.30;;;0.30;;
61505;SDS011;47366;51.916;4.574;2023-04-03T00:53:27;1.33;;;0.47;;
61505;SDS011;47366;51.916;4.574;2023-04-03T00:55:58;0.55;;;0.38;;
61505;SDS011;47366;51.916;4.574;2023-04-03T00:58:27;0.40;;;0.30;;
61505;SDS011;47366;51.916;4.574;2023-04-03T01:01:00;0.57;;;0.30;;
61505;SDS011;47366;51.916;4.574;2023-04-03T01:03:30;0.30;;;0.20;;
61505;SDS011;47366;51.916;4.574;2023-04-03T01:05:56;0.13;;;0.10;;
61505;SDS011;47366;51.916;4.574;2023-04-03T01:08:22;0.13;;;0.10;;
61505;SDS011;47366;51.916;4.574;2023-04-03T01:10:47;0.03;;;0.03;;
61505;SDS011;47366;51.916;4.574;2023-04-03T01:13:18;0.43;;;0.25;;
61505;SDS011;47366;51.916;4.574;2023-04-03T01:15:46;0.38;;;0.38;;
61505;SDS011;47366;51.916;4.574;2023-04-03T01:18:13;1.45;;;0.50;;
61505;SDS011;47366;51.916;4.574;2023-04-03T01:23:34;0.20;;;0.20;;
61505;SDS011;47366;51.916;4.574;2023-04-03T01:26:01;1.42;;;0.57;;
61505;SDS011;47366;51.916;4.574;2023-04-03T01:28:29;1.17;;;0.20;;
61505;SDS011;47366;51.916;4.574;2023-04-03T01:33:42;0.22;;;0.20;;
61505;SDS011;47366;51.916;4.574;2023-04-03T01:36:08;0.17;;;0.17;;
61505;SDS011;47366;51.916;4.574;2023-04-03T01:38:38;0.13;;;0.08;;
61505;SDS011;47366;51.916;4.574;2023-04-03T01:41:04;1.45;;;0.20;;
61505;SDS011;47366;51.916;4.574;2023-04-03T01:43:29;0.00;;;0.00;;
61505;SDS011;47366;51.916;4.574;2023-04-03T01:45:54;0.25;;;0.20;;
61505;SDS011;47366;51.916;4.574;2023-04-03T01:48:20;0.22;;;0.22;;
61505;SDS011;47366;51.916;4.574;2023-04-03T01:50:45;3.63;;;0.52;;
61505;SDS011;47366;51.916;4.574;2023-04-03T01:53:11;0.35;;;0.20;;
61505;SDS011;47366;51.916;4.574;2023-04-03T01:55:36;0.45;;;0.30;;
61505;SDS011;47366;51.916;4.574;2023-04-03T01:58:02;0.25;;;0.25;;
61505;SDS011;47366;51.916;4.574;2023-04-03T02:00:27;0.13;;;0.13;;
61505;SDS011;47366;51.916;4.574;2023-04-03T02:02:52;0.10;;;0.10;;
61505;SDS011;47366;51.916;4.574;2023-04-03T02:05:18;0.22;;;0.20;;
61505;SDS011;47366;51.916;4.574;2023-04-03T02:07:44;0.40;;;0.35;;
61505;SDS011;47366;51.916;4.574;2023-04-03T02:10:09;0.55;;;0.20;;
61505;SDS011;47366;51.916;4.574;2023-04-03T02:12:35;0.28;;;0.22;;
61505;SDS011;47366;51.916;4.574;2023-04-03T02:15:00;0.63;;;0.28;;
61505;SDS011;47366;51.916;4.574;2023-04-03T02:17:26;0.32;;;0.30;;
61505;SDS011;47366;51.916;4.574;2023-04-03T02:19:51;0.03;;;0.03;;
61505;SDS011;47366;51.916;4.574;2023-04-03T02:22:17;0.73;;;0.45;;
61505;SDS011;47366;51.916;4.574;2023-04-03T02:24:42;0.40;;;0.28;;
61505;SDS011;47366;51.916;4.574;2023-04-03T02:27:08;0.68;;;0.55;;
61505;SDS011;47366;51.916;4.574;2023-04-03T02:29:33;0.85;;;0.28;;
61505;SDS011;47366;51.916;4.574;2023-04-03T02:31:58;0.20;;;0.20;;
61505;SDS011;47366;51.916;4.574;2023-04-03T02:34:24;0.17;;;0.17;;
61505;SDS011;47366;51.916;4.574;2023-04-03T02:36:49;0.15;;;0.15;;
61505;SDS011;47366;51.916;4.574;2023-04-03T02:39:14;0.68;;;0.30;;
61505;SDS011;47366;51.916;4.574;2023-04-03T02:41:40;0.93;;;0.32;;
61505;SDS011;47366;51.916;4.574;2023-04-03T02:44:06;0.45;;;0.40;;
61505;SDS011;47366;51.916;4.574;2023-04-03T02:46:33;0.13;;;0.13;;
61505;SDS011;47366;51.916;4.574;2023-04-03T02:48:59;0.10;;;0.10;;
61505;SDS011;47366;51.916;4.574;2023-04-03T02:51:24;0.20;;;0.10;;
61505;SDS011;47366;51.916;4.574;2023-04-03T02:53:50;0.20;;;0.17;;
61505;SDS011;47366;51.916;4.574;2023-04-03T02:56:15;1.95;;;0.47;;
61505;SDS011;47366;51.916;4.574;2023-04-03T02:58:43;0.52;;;0.35;;
61505;SDS011;47366;51.916;4.574;2023-04-03T03:01:09;0.35;;;0.30;;
61505;SDS011;47366;51.916;4.574;2023-04-03T03:03:34;0.32;;;0.28;;
61505;SDS011;47366;51.916;4.574;2023-04-03T03:06:00;0.10;;;0.10;;
61505;SDS011;47366;51.916;4.574;2023-04-03T03:08:29;0.10;;;0.10;;
61505;SDS011;47366;51.916;4.574;2023-04-03T03:10:54;0.30;;;0.10;;
61505;SDS011;47366;51.916;4.574;2023-04-03T03:13:19;0.10;;;0.00;;
61505;SDS011;47366;51.916;4.574;2023-04-03T03:15:45;0.20;;;0.20;;
61505;SDS011;47366;51.916;4.574;2023-04-03T03:18:10;0.03;;;0.03;;
61505;SDS011;47366;51.916;4.574;2023-04-03T03:20:35;0.63;;;0.63;;
61505;SDS011;47366;51.916;4.574;2023-04-03T03:23:00;0.45;;;0.45;;
61505;SDS011;47366;51.916;4.574;2023-04-03T03:25:26;0.82;;;0.70;;
61505;SDS011;47366;51.916;4.574;2023-04-03T03:27:51;0.43;;;0.35;;
61505;SDS011;47366;51.916;4.574;2023-04-03T03:30:16;0.22;;;0.22;;
61505;SDS011;47366;51.916;4.574;2023-04-03T03:32:42;0.28;;;0.28;;
61505;SDS011;47366;51.916;4.574;2023-04-03T03:35:07;1.42;;;0.55;;
61505;SDS011;47366;51.916;4.574;2023-04-03T03:37:33;0.28;;;0.28;;
61505;SDS011;47366;51.916;4.574;2023-04-03T03:39:58;2.08;;;0.55;;
61505;SDS011;47366;51.916;4.574;2023-04-03T03:42:23;0.40;;;0.40;;
61505;SDS011;47366;51.916;4.574;2023-04-03T03:44:49;0.45;;;0.28;;
61505;SDS011;47366;51.916;4.574;2023-04-03T03:47:14;0.90;;;0.52;;
61505;SDS011;47366;51.916;4.574;2023-04-03T03:49:39;0.15;;;0.15;;
61505;SDS011;47366;51.916;4.574;2023-04-03T03:52:05;0.60;;;0.35;;
61505;SDS011;47366;51.916;4.574;2023-04-03T03:54:31;0.70;;;0.60;;
61505;SDS011;47366;51.916;4.574;2023-04-03T03:56:56;0.70;;;0.47;;
61505;SDS011;47366;51.916;4.574;2023-04-03T03:59:21;0.15;;;0.13;;
61505;SDS011;47366;51.916;4.574;2023-04-03T04:01:47;1.50;;;0.30;;
61505;SDS011;47366;51.916;4.574;2023-04-03T04:04:12;1.00;;;0.60;;
61505;SDS011;47366;51.916;4.574;2023-04-03T04:06:37;0.60;;;0.38;;
61505;SDS011;47366;51.916;4.574;2023-04-03T04:09:03;2.30;;;0.50;;
61505;SDS011;47366;51.916;4.574;2023-04-03T04:11:28;0.28;;;0.28;;
61505;SDS011;47366;51.916;4.574;2023-04-03T04:13:53;0.80;;;0.20;;
61505;SDS011;47366;51.916;4.574;2023-04-03T04:16:19;0.93;;;0.30;;
61505;SDS011;47366;51.916;4.574;2023-04-03T04:18:44;0.35;;;0.35;;
61505;SDS011;47366;51.916;4.574;2023-04-03T04:21:09;0.10;;;0.10;;
61505;SDS011;47366;51.916;4.574;2023-04-03T04:23:35;1.23;;;0.63;;
61505;SDS011;47366;51.916;4.574;2023-04-03T04:26:00;0.85;;;0.50;;
61505;SDS011;47366;51.916;4.574;2023-04-03T04:28:25;0.22;;;0.22;;
61505;SDS011;47366;51.916;4.574;2023-04-03T04:30:51;0.75;;;0.25;;
61505;SDS011;47366;51.916;4.574;2023-04-03T04:33:16;1.38;;;0.85;;
61505;SDS011;47366;51.916;4.574;2023-04-03T04:35:42;0.10;;;0.10;;
61505;SDS011;47366;51.916;4.574;2023-04-03T04:38:08;1.10;;;0.50;;
61505;SDS011;47366;51.916;4.574;2023-04-03T04:40:33;0.73;;;0.47;;
61505;SDS011;47366;51.916;4.574;2023-04-03T04:42:59;0.98;;;0.68;;
61505;SDS011;47366;51.916;4.574;2023-04-03T04:45:25;1.90;;;0.82;;
61505;SDS011;47366;51.916;4.574;2023-04-03T04:47:50;13.25;;;5.40;;
61505;SDS011;47366;51.916;4.574;2023-04-03T04:50:17;7.65;;;5.43;;
61505;SDS011;47366;51.916;4.574;2023-04-03T04:52:42;10.82;;;2.70;;
61505;SDS011;47366;51.916;4.574;2023-04-03T04:55:08;2.28;;;1.60;;
61505;SDS011;47366;51.916;4.574;2023-04-03T04:57:33;1.15;;;0.85;;
61505;SDS011;47366;51.916;4.574;2023-04-03T04:59:59;0.68;;;0.57;;
61505;SDS011;47366;51.916;4.574;2023-04-03T05:02:28;0.32;;;0.32;;
61505;SDS011;47366;51.916;4.574;2023-04-03T05:04:53;4.03;;;1.33;;
61505;SDS011;47366;51.916;4.574;2023-04-03T05:07:18;4.03;;;1.55;;
61505;SDS011;47366;51.916;4.574;2023-04-03T05:09:44;0.80;;;0.73;;
61505;SDS011;47366;51.916;4.574;2023-04-03T05:12:09;1.25;;;0.98;;
61505;SDS011;47366;51.916;4.574;2023-04-03T05:14:34;0.85;;;0.85;;
61505;SDS011;47366;51.916;4.574;2023-04-03T05:17:00;3.20;;;1.75;;
61505;SDS011;47366;51.916;4.574;2023-04-03T05:19:25;2.40;;;1.95;;
61505;SDS011;47366;51.916;4.574;2023-04-03T05:21:50;3.58;;;2.78;;
61505;SDS011;47366;51.916;4.574;2023-04-03T05:24:16;2.90;;;0.82;;
61505;SDS011;47366;51.916;4.574;2023-04-03T05:26:42;1.00;;;0.50;;
61505;SDS011;47366;51.916;4.574;2023-04-03T05:29:08;0.65;;;0.65;;
61505;SDS011;47366;51.916;4.574;2023-04-03T05:31:34;0.73;;;0.65;;
61505;SDS011;47366;51.916;4.574;2023-04-03T05:33:59;0.10;;;0.10;;
61505;SDS011;47366;51.916;4.574;2023-04-03T05:36:25;0.57;;;0.35;;
61505;SDS011;47366;51.916;4.574;2023-04-03T05:38:50;0.13;;;0.13;;
61505;SDS011;47366;51.916;4.574;2023-04-03T05:41:16;0.20;;;0.20;;
61505;SDS011;47366;51.916;4.574;2023-04-03T05:43:41;0.20;;;0.20;;
61505;SDS011;47366;51.916;4.574;2023-04-03T05:46:15;0.30;;;0.30;;
61505;SDS011;47366;51.916;4.574;2023-04-03T05:48:42;0.20;;;0.20;;
61505;SDS011;47366;51.916;4.574;2023-04-03T05:51:13;1.05;;;0.55;;
61505;SDS011;47366;51.916;4.574;2023-04-03T05:53:41;1.02;;;0.75;;
61505;SDS011;47366;51.916;4.574;2023-04-03T05:56:08;0.90;;;0.63;;
61505;SDS011;47366;51.916;4.574;2023-04-03T05:58:34;1.98;;;1.25;;
61505;SDS011;47366;51.916;4.574;2023-04-03T06:00:59;0.60;;;0.60;;
61505;SDS011;47366;51.916;4.574;2023-04-03T06:03:25;1.13;;;0.82;;
61505;SDS011;47366;51.916;4.574;2023-04-03T06:05:51;0.68;;;0.57;;
61505;SDS011;47366;51.916;4.574;2023-04-03T06:08:16;1.17;;;0.98;;
61505;SDS011;47366;51.916;4.574;2023-04-03T06:10:42;0.93;;;0.50;;
61505;SDS011;47366;51.916;4.574;2023-04-03T06:13:07;2.20;;;0.35;;
61505;SDS011;47366;51.916;4.574;2023-04-03T06:15:33;7.75;;;4.15;;
61505;SDS011;47366;51.916;4.574;2023-04-03T06:17:58;9.60;;;6.00;;
61505;SDS011;47366;51.916;4.574;2023-04-03T06:20:24;4.57;;;2.60;;
61505;SDS011;47366;51.916;4.574;2023-04-03T06:22:49;6.00;;;3.63;;
61505;SDS011;47366;51.916;4.574;2023-04-03T06:25:16;1.80;;;1.30;;
61505;SDS011;47366;51.916;4.574;2023-04-03T06:27:43;0.88;;;0.88;;
61505;SDS011;47366;51.916;4.574;2023-04-03T06:30:09;1.75;;;0.38;;
61505;SDS011;47366;51.916;4.574;2023-04-03T06:32:35;0.60;;;0.60;;
61505;SDS011;47366;51.916;4.574;2023-04-03T06:35:01;1.60;;;0.82;;
61505;SDS011;47366;51.916;4.574;2023-04-03T06:37:26;0.50;;;0.50;;
61505;SDS011;47366;51.916;4.574;2023-04-03T06:39:53;0.47;;;0.47;;
61505;SDS011;47366;51.916;4.574;2023-04-03T06:42:19;0.52;;;0.43;;
61505;SDS011;47366;51.916;4.574;2023-04-03T06:44:45;0.30;;;0.20;;
61505;SDS011;47366;51.916;4.574;2023-04-03T06:47:11;0.28;;;0.25;;
61505;SDS011;47366;51.916;4.574;2023-04-03T06:49:40;0.35;;;0.35;;
61505;SDS011;47366;51.916;4.574;2023-04-03T06:52:06;0.30;;;0.30;;
61505;SDS011;47366;51.916;4.574;2023-04-03T06:54:32;0.73;;;0.50;;
61505;SDS011;47366;51.916;4.574;2023-04-03T06:56:57;0.65;;;0.30;;
61505;SDS011;47366;51.916;4.574;2023-04-03T06:59:23;4.53;;;0.30;;
61505;SDS011;47366;51.916;4.574;2023-04-03T07:01:48;14.30;;;5.82;;
61505;SDS011;47366;51.916;4.574;2023-04-03T07:04:14;16.20;;;8.35;;
61505;SDS011;47366;51.916;4.574;2023-04-03T07:06:40;6.40;;;3.38;;
61505;SDS011;47366;51.916;4.574;2023-04-03T07:09:07;9.00;;;4.68;;
61505;SDS011;47366;51.916;4.574;2023-04-03T07:11:33;16.05;;;4.93;;
61505;SDS011;47366;51.916;4.574;2023-04-03T07:13:59;6.20;;;1.77;;
61505;SDS011;47366;51.916;4.574;2023-04-03T07:16:25;1.10;;;0.73;;
61505;SDS011;47366;51.916;4.574;2023-04-03T07:18:50;1.25;;;0.47;;
61505;SDS011;47366;51.916;4.574;2023-04-03T07:21:16;0.73;;;0.60;;
61505;SDS011;47366;51.916;4.574;2023-04-03T07:23:41;1.60;;;1.00;;
61505;SDS011;47366;51.916;4.574;2023-04-03T07:26:06;0.52;;;0.40;;
61505;SDS011;47366;51.916;4.574;2023-04-03T07:28:32;0.88;;;0.60;;
61505;SDS011;47366;51.916;4.574;2023-04-03T07:31:06;1.10;;;0.38;;
61505;SDS011;47366;51.916;4.574;2023-04-03T07:33:33;2.08;;;1.05;;
61505;SDS011;47366;51.916;4.574;2023-04-03T07:36:00;0.75;;;0.65;;
61505;SDS011;47366;51.916;4.574;2023-04-03T07:38:26;1.63;;;0.80;;
61505;SDS011;47366;51.916;4.574;2023-04-03T07:40:52;2.90;;;0.52;;
61505;SDS011;47366;51.916;4.574;2023-04-03T07:43:18;1.13;;;0.30;;
61505;SDS011;47366;51.916;4.574;2023-04-03T07:45:45;0.30;;;0.20;;
61505;SDS011;47366;51.916;4.574;2023-04-03T07:48:12;2.17;;;0.35;;
61505;SDS011;47366;51.916;4.574;2023-04-03T07:50:39;1.45;;;0.90;;
61505;SDS011;47366;51.916;4.574;2023-04-03T07:53:05;0.82;;;0.57;;
61505;SDS011;47366;51.916;4.574;2023-04-03T07:55:31;1.30;;;0.60;;
61505;SDS011;47366;51.916;4.574;2023-04-03T07:57:57;1.25;;;0.68;;
61505;SDS011;47366;51.916;4.574;2023-04-03T08:00:22;1.02;;;0.68;;
61505;SDS011;47366;51.916;4.574;2023-04-03T08:02:48;1.20;;;0.90;;
61505;SDS011;47366;51.916;4.574;2023-04-03T08:05:17;0.60;;;0.52;;
61505;SDS011;47366;51.916;4.574;2023-04-03T08:07:43;5.97;;;0.90;;
61505;SDS011;47366;51.916;4.574;2023-04-03T08:10:09;2.70;;;1.55;;
61505;SDS011;47366;51.916;4.574;2023-04-03T08:12:35;1.35;;;0.88;;
61505;SDS011;47366;51.916;4.574;2023-04-03T08:15:02;0.60;;;0.40;;
61505;SDS011;47366;51.916;4.574;2023-04-03T08:17:28;0.60;;;0.50;;
61505;SDS011;47366;51.916;4.574;2023-04-03T08:19:53;0.80;;;0.40;;
61505;SDS011;47366;51.916;4.574;2023-04-03T08:22:18;0.43;;;0.38;;
61505;SDS011;47366;51.916;4.574;2023-04-03T08:24:44;2.35;;;0.80;;
61505;SDS011;47366;51.916;4.574;2023-04-03T08:27:09;0.40;;;0.40;;
61505;SDS011;47366;51.916;4.574;2023-04-03T08:29:34;4.07;;;0.68;;
61505;SDS011;47366;51.916;4.574;2023-04-03T08:32:02;0.40;;;0.30;;
61505;SDS011;47366;51.916;4.574;2023-04-03T08:34:29;1.67;;;0.80;;
61505;SDS011;47366;51.916;4.574;2023-04-03T08:36:55;1.67;;;0.55;;
61505;SDS011;47366;51.916;4.574;2023-04-03T08:39:20;0.95;;;0.65;;
61505;SDS011;47366;51.916;4.574;2023-04-03T08:41:46;0.40;;;0.35;;
61505;SDS011;47366;51.916;4.574;2023-04-03T08:47:23;0.73;;;0.32;;
61505;SDS011;47366;51.916;4.574;2023-04-03T08:49:53;1.27;;;0.30;;
61505;SDS011;47366;51.916;4.574;2023-04-03T08:52:34;1.08;;;0.55;;
61505;SDS011;47366;51.916;4.574;2023-04-03T08:55:04;0.50;;;0.40;;
61505;SDS011;47366;51.916;4.574;2023-04-03T08:57:39;2.03;;;0.60;;
61505;SDS011;47366;51.916;4.574;2023-04-03T09:05:19;1.15;;;0.45;;
61505;SDS011;47366;51.916;4.574;2023-04-03T09:08:06;2.20;;;0.75;;
61505;SDS011;47366;51.916;4.574;2023-04-03T09:10:37;0.90;;;0.40;;
61505;SDS011;47366;51.916;4.574;2023-04-03T09:15:57;0.65;;;0.43;;
61505;SDS011;47366;51.916;4.574;2023-04-03T09:18:28;1.52;;;0.73;;
61505;SDS011;47366;51.916;4.574;2023-04-03T09:21:03;0.50;;;0.40;;
61505;SDS011;47366;51.916;4.574;2023-04-03T09:26:23;0.40;;;0.38;;
61505;SDS011;47366;51.916;4.574;2023-04-03T09:28:54;0.60;;;0.32;;
61505;SDS011;47366;51.916;4.574;2023-04-03T09:31:25;0.60;;;0.40;;
61505;SDS011;47366;51.916;4.574;2023-04-03T09:33:53;2.88;;;0.63;;
61505;SDS011;47366;51.916;4.574;2023-04-03T09:36:41;1.38;;;0.60;;
61505;SDS011;47366;51.916;4.574;2023-04-03T09:39:11;0.45;;;0.45;;
61505;SDS011;47366;51.916;4.574;2023-04-03T09:47:24;0.82;;;0.40;;
61505;SDS011;47366;51.916;4.574;2023-04-03T09:50:08;0.75;;;0.70;;
61505;SDS011;47366;51.916;4.574;2023-04-03T09:52:34;0.45;;;0.40;;
61505;SDS011;47366;51.916;4.574;2023-04-03T09:55:06;0.70;;;0.35;;
61505;SDS011;47366;51.916;4.574;2023-04-03T09:57:42;0.22;;;0.22;;
61505;SDS011;47366;51.916;4.574;2023-04-03T10:00:53;0.88;;;0.57;;
61505;SDS011;47366;51.916;4.574;2023-04-03T10:03:04;0.50;;;0.30;;
61505;SDS011;47366;51.916;4.574;2023-04-03T10:05:35;0.40;;;0.30;;
61505;SDS011;47366;51.916;4.574;2023-04-03T10:10:43;0.70;;;0.50;;
61505;SDS011;47366;51.916;4.574;2023-04-03T10:15:50;0.28;;;0.28;;
61505;SDS011;47366;51.916;4.574;2023-04-03T10:20:52;0.35;;;0.28;;
61505;SDS011;47366;51.916;4.574;2023-04-03T10:23:33;0.45;;;0.40;;
61505;SDS011;47366;51.916;4.574;2023-04-03T10:26:08;0.10;;;0.10;;
61505;SDS011;47366;51.916;4.574;2023-04-03T10:44:29;0.95;;;0.30;;
61505;SDS011;47366;51.916;4.574;2023-04-03T10:52:30;0.15;;;0.05;;
61505;SDS011;47366;51.916;4.574;2023-04-03T10:57:32;1.10;;;0.35;;
61505;SDS011;47366;51.916;4.574;2023-04-03T10:59:58;0.30;;;0.08;;
61505;SDS011;47366;51.916;4.574;2023-04-03T11:02:28;0.30;;;0.20;;
61505;SDS011;47366;51.916;4.574;2023-04-03T11:04:59;0.10;;;0.10;;
61505;SDS011;47366;51.916;4.574;2023-04-03T11:07:30;0.20;;;0.20;;
61505;SDS011;47366;51.916;4.574;2023-04-03T11:10:17;0.13;;;0.13;;
61505;SDS011;47366;51.916;4.574;2023-04-03T11:12:49;5.13;;;0.57;;
61505;SDS011;47366;51.916;4.574;2023-04-03T11:15:21;0.52;;;0.22;;
61505;SDS011;47366;51.916;4.574;2023-04-03T11:17:50;0.20;;;0.10;;
61505;SDS011;47366;51.916;4.574;2023-04-03T11:20:31;0.47;;;0.25;;
61505;SDS011;47366;51.916;4.574;2023-04-03T11:23:19;2.28;;;0.17;;
61505;SDS011;47366;51.916;4.574;2023-04-03T11:25:50;0.28;;;0.10;;
61505;SDS011;47366;51.916;4.574;2023-04-03T11:28:18;0.05;;;0.05;;
61505;SDS011;47366;51.916;4.574;2023-04-03T11:31:02;0.22;;;0.13;;
61505;SDS011;47366;51.916;4.574;2023-04-03T11:38:52;0.25;;;0.20;;
61505;SDS011;47366;51.916;4.574;2023-04-03T11:41:25;0.22;;;0.00;;
61505;SDS011;47366;51.916;4.574;2023-04-03T11:44:01;0.52;;;0.10;;
61505;SDS011;47366;51.916;4.574;2023-04-03T11:46:49;0.10;;;0.10;;
61505;SDS011;47366;51.916;4.574;2023-04-03T12:05:50;0.80;;;0.20;;
61505;SDS011;47366;51.916;4.574;2023-04-03T12:26:26;0.17;;;0.10;;
61505;SDS011;47366;51.916;4.574;2023-04-03T12:28:55;0.90;;;0.32;;
61505;SDS011;47366;51.916;4.574;2023-04-03T12:31:22;2.35;;;0.40;;
61505;SDS011;47366;51.916;4.574;2023-04-03T12:34:01;0.28;;;0.28;;
61505;SDS011;47366;51.916;4.574;2023-04-03T12:36:44;0.85;;;0.38;;
61505;SDS011;47366;51.916;4.574;2023-04-03T12:39:42;0.73;;;0.25;;
61505;SDS011;47366;51.916;4.574;2023-04-03T12:42:38;0.20;;;0.10;;
61505;SDS011;47366;51.916;4.574;2023-04-03T12:45:21;0.35;;;0.20;;
61505;SDS011;47366;51.916;4.574;2023-04-03T12:47:49;0.32;;;0.30;;
61505;SDS011;47366;51.916;4.574;2023-04-03T12:50:22;0.80;;;0.30;;
61505;SDS011;47366;51.916;4.574;2023-04-03T12:55:29;0.30;;;0.20;;
61505;SDS011;47366;51.916;4.574;2023-04-03T12:57:55;2.67;;;0.20;;
61505;SDS011;47366;51.916;4.574;2023-04-03T13:02:58;0.77;;;0.30;;
61505;SDS011;47366;51.916;4.574;2023-04-03T13:05:24;0.55;;;0.38;;
61505;SDS011;47366;51.916;4.574;2023-04-03T13:07:53;0.30;;;0.20;;
61505;SDS011;47366;51.916;4.574;2023-04-03T13:10:24;0.20;;;0.20;;
61505;SDS011;47366;51.916;4.574;2023-04-03T13:15:28;2.33;;;0.20;;
61505;SDS011;47366;51.916;4.574;2023-04-03T13:17:55;0.20;;;0.20;;
61505;SDS011;47366;51.916;4.574;2023-04-03T13:20:24;0.15;;;0.10;;
61505;SDS011;47366;51.916;4.574;2023-04-03T13:25:23;0.77;;;0.35;;
61505;SDS011;47366;51.916;4.574;2023-04-03T13:27:50;0.85;;;0.35;;
61505;SDS011;47366;51.916;4.574;2023-04-03T13:30:30;0.63;;;0.45;;
61505;SDS011;47366;51.916;4.574;2023-04-03T13:32:59;0.88;;;0.30;;
61505;SDS011;47366;51.916;4.574;2023-04-03T13:35:38;0.52;;;0.22;;
61505;SDS011;47366;51.916;4.574;2023-04-03T13:43:17;0.40;;;0.38;;
61505;SDS011;47366;51.916;4.574;2023-04-03T13:45:56;0.77;;;0.47;;
61505;SDS011;47366;51.916;4.574;2023-04-03T13:48:34;0.88;;;0.73;;
61505;SDS011;47366;51.916;4.574;2023-04-03T15:54:45;1.70;;;0.52;;
61505;SDS011;47366;51.916;4.574;2023-04-03T15:57:11;0.22;;;0.20;;
61505;SDS011;47366;51.916;4.574;2023-04-03T15:59:36;1.23;;;0.63;;
61505;SDS011;47366;51.916;4.574;2023-04-03T16:02:01;1.85;;;0.65;;
61505;SDS011;47366;51.916;4.574;2023-04-03T16:04:30;1.05;;;0.63;;
61505;SDS011;47366;51.916;4.574;2023-04-03T16:06:55;0.85;;;0.43;;
61505;SDS011;47366;51.916;4.574;2023-04-03T16:09:21;0.85;;;0.43;;
61505;SDS011;47366;51.916;4.574;2023-04-03T16:11:46;0.88;;;0.30;;
61505;SDS011;47366;51.916;4.574;2023-04-03T16:14:11;0.20;;;0.20;;
61505;SDS011;47366;51.916;4.574;2023-04-03T16:16:37;0.73;;;0.35;;
61505;SDS011;47366;51.916;4.574;2023-04-03T16:19:03;0.22;;;0.20;;
61505;SDS011;47366;51.916;4.574;2023-04-03T16:21:29;1.75;;;0.60;;
61505;SDS011;47366;51.916;4.574;2023-04-03T16:23:58;1.23;;;0.45;;
61505;SDS011;47366;51.916;4.574;2023-04-03T16:26:24;0.70;;;0.43;;
61505;SDS011;47366;51.916;4.574;2023-04-03T16:28:50;3.15;;;0.52;;
61505;SDS011;47366;51.916;4.574;2023-04-03T16:31:16;0.65;;;0.38;;
61505;SDS011;47366;51.916;4.574;2023-04-03T16:33:41;1.42;;;0.50;;
61505;SDS011;47366;51.916;4.574;2023-04-03T16:36:07;0.25;;;0.20;;
61505;SDS011;47366;51.916;4.574;2023-04-03T16:38:32;1.50;;;0.50;;
61505;SDS011;47366;51.916;4.574;2023-04-03T16:40:57;3.25;;;0.40;;
61505;SDS011;47366;51.916;4.574;2023-04-03T16:43:24;0.85;;;0.30;;
61505;SDS011;47366;51.916;4.574;2023-04-03T16:45:50;0.70;;;0.20;;
61505;SDS011;47366;51.916;4.574;2023-04-03T16:48:16;0.57;;;0.22;;
61505;SDS011;47366;51.916;4.574;2023-04-03T16:50:41;0.52;;;0.28;;
61505;SDS011;47366;51.916;4.574;2023-04-03T16:53:06;0.88;;;0.28;;
61505;SDS011;47366;51.916;4.574;2023-04-03T16:55:34;1.77;;;0.50;;
61505;SDS011;47366;51.916;4.574;2023-04-03T16:58:00;1.65;;;0.47;;
61505;SDS011;47366;51.916;4.574;2023-04-03T17:00:26;0.57;;;0.25;;
61505;SDS011;47366;51.916;4.574;2023-04-03T17:02:53;1.20;;;0.55;;
61505;SDS011;47366;51.916;4.574;2023-04-03T17:05:19;1.88;;;0.73;;
61505;SDS011;47366;51.916;4.574;2023-04-03T17:07:44;0.43;;;0.32;;
61505;SDS011;47366;51.916;4.574;2023-04-03T17:10:10;0.50;;;0.40;;
61505;SDS011;47366;51.916;4.574;2023-04-03T17:12:37;0.70;;;0.43;;
61505;SDS011;47366;51.916;4.574;2023-04-03T17:15:02;0.93;;;0.28;;
61505;SDS011;47366;51.916;4.574;2023-04-03T17:17:28;1.90;;;0.60;;
61505;SDS011;47366;51.916;4.574;2023-04-03T17:19:53;0.25;;;0.22;;
61505;SDS011;47366;51.916;4.574;2023-04-03T17:22:20;0.82;;;0.50;;
61505;SDS011;47366;51.916;4.574;2023-04-03T17:24:45;1.23;;;0.60;;
61505;SDS011;47366;51.916;4.574;2023-04-03T17:27:11;0.52;;;0.38;;
61505;SDS011;47366;51.916;4.574;2023-04-03T17:29:36;0.28;;;0.28;;
61505;SDS011;47366;51.916;4.574;2023-04-03T17:32:02;1.33;;;0.43;;
61505;SDS011;47366;51.916;4.574;2023-04-03T17:34:27;6.22;;;1.48;;
61505;SDS011;47366;51.916;4.574;2023-04-03T17:36:53;0.57;;;0.40;;
61505;SDS011;47366;51.916;4.574;2023-04-03T17:39:18;1.90;;;0.50;;
61505;SDS011;47366;51.916;4.574;2023-04-03T17:41:44;6.03;;;3.17;;
61505;SDS011;47366;51.916;4.574;2023-04-03T17:44:10;3.22;;;1.67;;
61505;SDS011;47366;51.916;4.574;2023-04-03T17:46:36;6.88;;;3.05;;
61505;SDS011;47366;51.916;4.574;2023-04-03T17:49:02;5.78;;;2.38;;
61505;SDS011;47366;51.916;4.574;2023-04-03T17:51:28;6.03;;;2.70;;
61505;SDS011;47366;51.916;4.574;2023-04-03T17:53:54;8.48;;;2.65;;
61505;SDS011;47366;51.916;4.574;2023-04-03T17:56:21;6.30;;;1.80;;
61505;SDS011;47366;51.916;4.574;2023-04-03T17:58:48;5.47;;;1.88;;
61505;SDS011;47366;51.916;4.574;2023-04-03T18:01:19;3.72;;;1.75;;
61505;SDS011;47366;51.916;4.574;2023-04-03T18:03:46;5.35;;;2.58;;
61505;SDS011;47366;51.916;4.574;2023-04-03T18:06:16;4.00;;;2.35;;
61505;SDS011;47366;51.916;4.574;2023-04-03T18:08:44;4.88;;;2.65;;
61505;SDS011;47366;51.916;4.574;2023-04-03T18:11:14;3.83;;;2.13;;
61505;SDS011;47366;51.916;4.574;2023-04-03T18:13:40;7.68;;;3.47;;
61505;SDS011;47366;51.916;4.574;2023-04-03T18:16:07;20.60;;;5.07;;
61505;SDS011;47366;51.916;4.574;2023-04-03T18:18:34;46.75;;;7.05;;
61505;SDS011;47366;51.916;4.574;2023-04-03T18:20:59;52.05;;;7.28;;
61505;SDS011;47366;51.916;4.574;2023-04-03T18:23:25;26.48;;;6.07;;
61505;SDS011;47366;51.916;4.574;2023-04-03T18:25:54;16.00;;;6.90;;
61505;SDS011;47366;51.916;4.574;2023-04-03T18:28:19;9.18;;;5.00;;
61505;SDS011;47366;51.916;4.574;2023-04-03T18:30:45;11.40;;;6.40;;
61505;SDS011;47366;51.916;4.574;2023-04-03T18:33:11;8.30;;;5.15;;
61505;SDS011;47366;51.916;4.574;2023-04-03T18:35:36;5.93;;;1.80;;
61505;SDS011;47366;51.916;4.574;2023-04-03T18:38:02;2.53;;;1.90;;
61505;SDS011;47366;51.916;4.574;2023-04-03T18:40:28;2.90;;;1.88;;
61505;SDS011;47366;51.916;4.574;2023-04-03T18:42:55;1.70;;;1.20;;
61505;SDS011;47366;51.916;4.574;2023-04-03T18:45:21;4.70;;;1.85;;
61505;SDS011;47366;51.916;4.574;2023-04-03T18:47:48;2.80;;;1.95;;
61505;SDS011;47366;51.916;4.574;2023-04-03T18:50:13;1.98;;;1.27;;